createdAt,value
2019-02-09T00:00:34.419Z,99433.39
2019-02-09T00:03:02.855Z,99433.06
2019-02-09T00:05:31.175Z,99438.80
2019-02-09T00:07:59.506Z,99439.70
2019-02-09T00:10:27.782Z,99428.56
2019-02-09T00:12:56.091Z,99429.83
2019-02-09T00:15:24.370Z,99428.23
2019-02-09T00:17:53.015Z,99431.18
2019-02-09T00:20:21.342Z,99429.59
2019-02-09T00:22:49.667Z,99417.44
2019-02-09T00:25:23.125Z,99403.79
2019-02-09T00:27:51.571Z,99411.11
2019-02-09T00:30:22.255Z,99401.98
2019-02-09T00:32:50.537Z,99400.22
2019-02-09T00:35:20.203Z,99402.58
2019-02-09T00:37:48.500Z,99395.59
2019-02-09T00:40:25.164Z,99394.58
2019-02-09T00:42:53.418Z,99395.69
2019-02-09T00:45:22.939Z,99410.78
2019-02-09T00:47:51.230Z,99397.38
2019-02-09T00:50:20.056Z,99404.21
2019-02-09T00:52:48.445Z,99384.05
2019-02-09T00:55:24.555Z,99383.94
2019-02-09T00:57:52.844Z,99370.53
2019-02-09T01:00:27.355Z,99378.48
2019-02-09T01:02:55.671Z,99367.72
2019-02-09T01:05:30.205Z,99366.25
2019-02-09T01:07:58.513Z,99353.87
2019-02-09T01:10:28.671Z,99368.89
2019-02-09T01:12:57.023Z,99363.59
2019-02-09T01:15:25.305Z,99361.80
2019-02-09T01:17:53.650Z,99362.09
2019-02-09T01:20:27.120Z,99365.84
2019-02-09T01:22:59.167Z,99370.91
2019-02-09T01:25:27.469Z,99360.86
2019-02-09T01:27:55.743Z,99366.34
2019-02-09T01:30:28.828Z,99364.10
2019-02-09T01:32:57.157Z,99362.99
2019-02-09T01:35:25.444Z,99366.34
2019-02-09T01:37:53.712Z,99358.95
2019-02-09T01:40:26.888Z,99347.58
2019-02-09T01:42:55.480Z,99342.00
2019-02-09T01:45:27.325Z,99327.73
2019-02-09T01:47:55.648Z,99331.78
2019-02-09T01:50:24.975Z,99337.30
2019-02-09T01:52:53.361Z,99329.77
2019-02-09T01:55:21.756Z,99337.11
2019-02-09T01:57:50.157Z,99339.99
2019-02-09T02:00:24.517Z,99345.77
2019-02-09T02:02:52.847Z,99346.20
2019-02-09T02:05:22.536Z,99344.67
2019-02-09T02:07:50.822Z,99337.34
2019-02-09T02:10:27.361Z,99335.58
2019-02-09T02:12:55.623Z,99323.19
2019-02-09T02:15:23.963Z,99323.67
2019-02-09T02:17:52.275Z,99315.66
2019-02-09T02:20:22.745Z,99304.62
2019-02-09T02:22:51.015Z,99309.94
2019-02-09T02:25:20.915Z,99291.95
2019-02-09T02:27:49.209Z,99303.19
2019-02-09T02:30:22.900Z,99296.00
2019-02-09T02:32:51.788Z,99297.89
2019-02-09T02:35:21.028Z,99295.76
2019-02-09T02:37:49.298Z,99304.52
2019-02-09T02:40:19.836Z,99313.30
2019-02-09T02:42:48.517Z,99301.39
2019-02-09T02:45:18.776Z,99302.50
2019-02-09T02:47:47.026Z,99302.69
2019-02-09T02:50:20.710Z,99291.02
2019-02-09T02:52:49.022Z,99272.67
2019-02-09T02:55:19.470Z,99290.69
2019-02-09T02:57:47.848Z,99317.59
2019-02-09T03:00:31.001Z,99292.39
2019-02-09T03:02:51.653Z,99300.06
2019-02-09T03:05:21.749Z,99303.69
2019-02-09T03:07:50.092Z,99313.80
2019-02-09T03:10:18.407Z,99315.72
2019-02-09T03:12:46.757Z,99307.73
2019-02-09T03:15:20.995Z,99298.08
2019-02-09T03:17:49.346Z,99298.71
2019-02-09T03:20:19.260Z,99313.55
2019-02-09T03:22:47.625Z,99311.67
2019-02-09T03:25:21.429Z,99305.70
2019-02-09T03:27:49.685Z,99307.81
2019-02-09T03:30:20.610Z,99314.13
2019-02-09T03:32:49.009Z,99302.08
2019-02-09T03:35:18.010Z,99297.55
2019-02-09T03:37:46.414Z,99289.01
2019-02-09T03:40:22.846Z,99292.37
2019-02-09T03:42:51.124Z,99289.01
2019-02-09T03:45:23.649Z,99291.89
2019-02-09T03:47:52.086Z,99287.28
2019-02-09T03:50:25.780Z,99291.56
2019-02-09T03:52:54.077Z,99281.59
2019-02-09T03:55:22.354Z,99278.36
2019-02-09T03:57:50.683Z,99277.97
2019-02-09T04:00:25.042Z,99270.88
2019-02-09T04:02:53.316Z,99291.40
2019-02-09T04:05:21.673Z,99294.33
2019-02-09T04:07:49.930Z,99303.72
2019-02-09T04:10:23.680Z,99302.86
2019-02-09T04:12:51.955Z,99297.31
2019-02-09T04:15:21.861Z,99296.39
2019-02-09T04:17:50.142Z,99296.53
2019-02-09T04:20:20.159Z,99294.95
2019-02-09T04:22:48.562Z,99306.75
2019-02-09T04:25:20.818Z,99297.55
2019-02-09T04:27:49.913Z,99307.56
2019-02-09T04:30:20.335Z,99306.66
2019-02-09T04:32:48.571Z,99308.11
2019-02-09T04:35:16.874Z,99291.14
2019-02-09T04:37:45.163Z,99302.62
2019-02-09T04:40:16.721Z,99301.90
2019-02-09T04:42:44.983Z,99298.42
2019-02-09T04:45:15.616Z,99306.19
2019-02-09T04:47:43.879Z,99314.52
2019-02-09T04:50:13.072Z,99307.09
2019-02-09T04:52:41.363Z,99313.73
2019-02-09T04:55:12.863Z,99315.17
2019-02-09T04:57:41.168Z,99320.84
2019-02-09T05:00:12.813Z,99323.30
2019-02-09T05:02:41.910Z,99326.42
2019-02-09T05:05:10.667Z,99323.18
2019-02-09T05:07:38.934Z,99320.39
2019-02-09T05:10:10.667Z,99332.74
2019-02-09T05:12:38.997Z,99328.34
2019-02-09T05:15:12.370Z,99337.45
2019-02-09T05:17:40.642Z,99334.75
2019-02-09T05:20:11.722Z,99332.05
2019-02-09T05:22:40.172Z,99342.52
2019-02-09T05:25:10.552Z,99337.03
2019-02-09T05:27:38.812Z,99341.73
2019-02-09T05:30:10.651Z,99360.86
2019-02-09T05:32:38.959Z,99345.39
2019-02-09T05:35:09.614Z,99357.77
2019-02-09T05:37:37.909Z,99351.75
2019-02-09T05:40:14.586Z,99360.70
2019-02-09T05:42:42.859Z,99363.98
2019-02-09T05:45:16.659Z,99365.00
2019-02-09T05:47:44.975Z,99370.72
2019-02-09T05:50:17.916Z,99375.42
2019-02-09T05:52:46.800Z,99370.74
2019-02-09T05:55:15.521Z,99374.79
2019-02-09T05:57:43.800Z,99380.91
2019-02-09T06:00:15.482Z,99384.23
2019-02-09T06:02:44.218Z,99377.57
2019-02-09T06:05:12.707Z,99376.70
2019-02-09T06:07:40.948Z,99382.19
2019-02-09T06:10:17.542Z,99397.11
2019-02-09T06:12:45.956Z,99395.84
2019-02-09T06:15:20.460Z,99397.11
2019-02-09T06:17:48.760Z,99400.22
2019-02-09T06:20:22.751Z,99398.02
2019-02-09T06:22:51.038Z,99403.73
2019-02-09T06:25:20.949Z,99406.19
2019-02-09T06:27:49.230Z,99399.86
2019-02-09T06:30:22.402Z,99395.01
2019-02-09T06:32:50.670Z,99404.15
2019-02-09T06:35:19.108Z,99401.75
2019-02-09T06:37:47.411Z,99405.58
2019-02-09T06:40:17.702Z,99407.70
2019-02-09T06:42:46.012Z,99407.14
2019-02-09T06:45:17.182Z,99415.88
2019-02-09T06:47:45.454Z,99416.20
2019-02-09T06:50:16.718Z,99429.44
2019-02-09T06:52:45.012Z,99428.83
2019-02-09T06:55:15.609Z,99428.83
2019-02-09T06:57:43.902Z,99438.02
2019-02-09T07:00:15.099Z,99429.36
2019-02-09T07:02:43.418Z,99436.59
2019-02-09T07:05:16.505Z,99454.03
2019-02-09T07:07:44.913Z,99462.50
2019-02-09T07:10:21.526Z,99452.81
2019-02-09T07:12:49.854Z,99445.61
2019-02-09T07:15:23.374Z,99467.44
2019-02-09T07:17:51.695Z,99472.25
2019-02-09T07:20:19.999Z,99481.61
2019-02-09T07:22:48.249Z,99480.27
2019-02-09T07:25:17.015Z,99492.64
2019-02-09T07:27:45.622Z,99489.95
2019-02-09T07:30:21.974Z,99491.75
2019-02-09T07:32:50.277Z,99493.59
2019-02-09T07:35:18.593Z,99485.02
2019-02-09T07:37:46.865Z,99492.97
2019-02-09T07:40:18.235Z,99495.42
2019-02-09T07:42:46.475Z,99496.52
2019-02-09T07:45:17.617Z,99504.99
2019-02-09T07:47:45.925Z,99511.73
2019-02-09T07:50:16.989Z,99505.40
2019-02-09T07:52:45.315Z,99502.38
2019-02-09T07:55:16.098Z,99499.84
2019-02-09T07:57:44.440Z,99502.62
2019-02-09T08:00:18.372Z,99506.58
2019-02-09T08:02:46.681Z,99494.04
2019-02-09T08:05:14.994Z,99500.70
2019-02-09T08:07:43.353Z,99503.89
2019-02-09T08:10:14.896Z,99494.20
2019-02-09T08:12:43.231Z,99500.16
2019-02-09T08:15:22.666Z,99495.88
2019-02-09T08:17:50.941Z,99501.52
2019-02-09T08:20:21.323Z,99499.36
2019-02-09T08:22:52.429Z,99498.90
2019-02-09T08:25:23.083Z,99496.73
2019-02-09T08:27:51.408Z,99504.05
2019-02-09T08:30:25.575Z,99509.36
2019-02-09T08:32:53.900Z,99512.30
2019-02-09T08:35:22.167Z,99525.38
2019-02-09T08:37:50.601Z,99522.28
2019-02-09T08:40:18.939Z,99541.53
2019-02-09T08:42:47.175Z,99534.71
2019-02-09T08:45:19.868Z,99531.61
2019-02-09T08:47:48.251Z,99525.54
2019-02-09T08:50:25.229Z,99533.72
2019-02-09T08:52:53.519Z,99534.78
2019-02-09T08:55:21.781Z,99541.41
2019-02-09T08:57:50.205Z,99541.00
2019-02-09T09:00:26.772Z,99544.10
2019-02-09T09:02:55.103Z,99543.86
2019-02-09T09:05:23.339Z,99546.45
2019-02-09T09:07:51.613Z,99545.29
2019-02-09T09:10:22.334Z,99560.70
2019-02-09T09:12:50.596Z,99549.73
2019-02-09T09:15:22.021Z,99546.47
2019-02-09T09:17:50.281Z,99547.17
2019-02-09T09:20:27.184Z,99555.75
2019-02-09T09:22:55.512Z,99554.77
2019-02-09T09:25:23.789Z,99562.17
2019-02-09T09:27:52.062Z,99566.75
2019-02-09T09:30:23.144Z,99574.12
2019-02-09T09:32:51.391Z,99570.23
2019-02-09T09:35:19.673Z,99564.42
2019-02-09T09:37:47.966Z,99574.44
2019-02-09T09:40:19.479Z,99578.77
2019-02-09T09:42:47.798Z,99562.57
2019-02-09T09:45:21.043Z,99563.34
2019-02-09T09:47:49.329Z,99548.97
2019-02-09T09:50:20.228Z,99560.86
2019-02-09T09:52:48.611Z,99563.23
2019-02-09T09:55:16.916Z,99561.55
2019-02-09T09:57:45.158Z,99568.45
2019-02-09T10:00:16.177Z,99564.11
2019-02-09T10:02:44.428Z,99557.91
2019-02-09T10:05:15.892Z,99573.70
2019-02-09T10:07:44.181Z,99561.66
2019-02-09T10:10:18.515Z,99561.98
2019-02-09T10:12:46.919Z,99565.02
2019-02-09T10:15:23.236Z,99583.93
2019-02-09T10:17:51.530Z,99579.30
2019-02-09T10:20:25.029Z,99573.91
2019-02-09T10:22:53.275Z,99564.84
2019-02-09T10:25:21.531Z,99569.58
2019-02-09T10:27:51.060Z,99579.77
2019-02-09T10:30:30.221Z,99579.13
2019-02-09T10:32:58.507Z,99588.80
2019-02-09T10:35:26.807Z,99577.38
2019-02-09T10:37:55.040Z,99590.13
2019-02-09T10:40:28.699Z,99589.70
2019-02-09T10:42:57.278Z,99583.76
2019-02-09T10:45:27.571Z,99593.86
2019-02-09T10:47:55.950Z,99583.76
2019-02-09T10:50:27.437Z,99595.36
2019-02-09T10:52:55.783Z,99611.48
2019-02-09T10:55:24.298Z,99594.00
2019-02-09T10:57:52.610Z,99604.30
2019-02-09T11:00:33.258Z,99592.91
2019-02-09T11:03:01.510Z,99587.50
2019-02-09T11:05:29.797Z,99597.02
2019-02-09T11:07:58.132Z,99591.75
2019-02-09T11:10:26.405Z,99596.35
2019-02-09T11:12:54.670Z,99580.03
2019-02-09T11:15:23.382Z,99586.34
2019-02-09T11:17:51.687Z,99585.53
2019-02-09T11:20:22.190Z,99599.55
2019-02-09T11:22:50.426Z,99596.80
2019-02-09T11:25:19.926Z,99584.05
2019-02-09T11:27:48.229Z,99591.53
2019-02-09T11:30:21.305Z,99593.52
2019-02-09T11:32:49.812Z,99589.06
2019-02-09T11:35:18.103Z,99586.89
2019-02-09T11:37:46.404Z,99592.11
2019-02-09T11:40:16.913Z,99598.40
2019-02-09T11:42:45.199Z,99601.77
2019-02-09T11:45:33.321Z,99605.15
2019-02-09T11:48:01.553Z,99603.80
2019-02-09T11:50:29.826Z,99604.42
2019-02-09T11:53:15.324Z,99618.38
2019-02-09T11:55:43.721Z,99603.78
2019-02-09T11:58:11.996Z,99601.41
2019-02-09T12:00:43.400Z,99613.30
2019-02-09T12:03:14.953Z,99611.41
2019-02-09T12:05:41.788Z,99610.08
2019-02-09T12:08:10.103Z,99613.70
2019-02-09T12:10:38.376Z,99625.11
2019-02-09T12:13:07.285Z,99613.56
2019-02-09T12:15:37.480Z,99626.67
2019-02-09T12:18:07.969Z,99625.52
2019-02-09T12:20:36.388Z,99636.94
2019-02-09T12:23:04.692Z,99627.47
2019-02-09T12:25:35.230Z,99626.51
2019-02-09T12:28:04.293Z,99630.84
2019-02-09T12:30:34.727Z,99641.10
2019-02-09T12:33:02.959Z,99610.13
2019-02-09T12:35:31.239Z,99644.62
2019-02-09T12:37:59.490Z,99643.06
2019-02-09T12:40:29.630Z,99647.55
2019-02-09T12:42:58.197Z,99649.23
2019-02-09T12:45:28.820Z,99651.70
2019-02-09T12:47:57.169Z,99634.70
2019-02-09T12:50:26.775Z,99657.00
2019-02-09T12:52:55.120Z,99643.35
2019-02-09T12:55:23.434Z,99648.77
2019-02-09T12:57:51.693Z,99635.57
2019-02-09T13:00:22.778Z,99654.64
2019-02-09T13:02:51.143Z,99652.70
2019-02-09T13:05:19.406Z,99651.26
2019-02-09T13:07:47.748Z,99646.62
2019-02-09T13:10:19.857Z,99652.61
2019-02-09T13:12:48.209Z,99664.78
2019-02-09T13:15:22.282Z,99666.67
2019-02-09T13:17:50.638Z,99669.95
2019-02-09T13:20:23.668Z,99675.03
2019-02-09T13:22:51.935Z,99670.40
2019-02-09T13:25:20.248Z,99684.97
2019-02-09T13:27:48.567Z,99658.65
2019-02-09T13:30:28.298Z,99681.70
2019-02-09T13:32:56.612Z,99689.91
2019-02-09T13:35:24.891Z,99683.69
2019-02-09T13:37:53.158Z,99693.75
2019-02-09T13:40:23.190Z,99700.75
2019-02-09T13:42:51.510Z,99700.75
2019-02-09T13:45:27.796Z,99700.50
2019-02-09T13:47:56.060Z,99709.43
2019-02-09T13:50:24.309Z,99724.95
2019-02-09T13:52:52.730Z,99729.70
2019-02-09T13:55:21.028Z,99720.94
2019-02-09T13:57:49.338Z,99731.15
2019-02-09T14:00:25.544Z,99724.11
2019-02-09T14:02:54.895Z,99741.98
2019-02-09T14:05:23.223Z,99739.93
2019-02-09T14:07:51.458Z,99736.36
2019-02-09T14:10:21.474Z,99743.41
2019-02-09T14:12:50.253Z,99749.15
2019-02-09T14:15:35.837Z,99754.88
2019-02-09T14:18:06.974Z,99759.09
2019-02-09T14:20:35.349Z,99751.84
2019-02-09T14:23:03.835Z,99748.61
2019-02-09T14:25:32.209Z,99769.99
2019-02-09T14:28:01.521Z,99759.96
2019-02-09T14:30:46.000Z,99784.94
2019-02-09T14:33:14.397Z,99781.54
2019-02-09T14:35:45.531Z,99791.62
2019-02-09T14:38:13.901Z,99792.52
2019-02-09T14:40:45.299Z,99792.65
2019-02-09T14:43:15.326Z,99807.22
2019-02-09T14:45:45.409Z,99810.22
2019-02-09T14:48:18.461Z,99810.33
2019-02-09T14:50:48.618Z,99815.33
2019-02-09T14:53:17.104Z,99826.43
2019-02-09T14:55:49.525Z,99818.97
2019-02-09T14:58:18.170Z,99814.38
2019-02-09T15:00:49.400Z,99819.55
2019-02-09T15:03:25.664Z,99824.46
2019-02-09T15:05:49.090Z,99830.97
2019-02-09T15:08:17.360Z,99831.78
2019-02-09T15:10:45.785Z,99835.84
2019-02-09T15:13:14.256Z,99837.27
2019-02-09T15:15:48.596Z,99838.95
2019-02-09T15:18:22.808Z,99836.08
2019-02-09T15:21:05.526Z,99844.41
2019-02-09T15:23:39.729Z,99839.73
2019-02-09T15:26:12.773Z,99844.27
2019-02-09T15:28:41.291Z,99842.51
2019-02-09T15:31:09.616Z,99852.70
2019-02-09T15:33:45.691Z,99853.33
2019-02-09T15:36:15.182Z,99869.05
2019-02-09T15:38:43.579Z,99857.13
2019-02-09T15:41:13.593Z,99867.45
2019-02-09T15:43:41.926Z,99867.70
2019-02-09T15:46:10.858Z,99880.19
2019-02-09T15:48:39.130Z,99882.89
2019-02-09T15:51:07.465Z,99882.19
2019-02-09T15:53:35.707Z,99887.27
2019-02-09T15:56:04.053Z,99891.56
2019-02-09T15:58:32.441Z,99890.54
2019-02-09T16:01:00.914Z,99899.43
2019-02-09T16:03:29.174Z,99908.39
2019-02-09T16:05:57.426Z,99912.77
2019-02-09T16:08:25.772Z,99910.64
2019-02-09T16:10:53.998Z,99908.72
2019-02-09T16:13:22.349Z,99908.55
2019-02-09T16:15:50.611Z,99917.80
2019-02-09T16:18:18.889Z,99926.52
2019-02-09T16:20:47.191Z,99910.47
2019-02-09T16:23:15.437Z,99918.97
2019-02-09T16:25:43.743Z,99920.08
2019-02-09T16:28:12.060Z,99923.73
2019-02-09T16:30:40.307Z,99941.70
2019-02-09T16:33:08.596Z,99923.52
2019-02-09T16:35:36.908Z,99942.44
2019-02-09T16:38:05.146Z,99936.46
2019-02-09T16:40:34.616Z,99932.56
2019-02-09T16:43:02.902Z,99940.09
2019-02-09T16:45:36.499Z,99947.91
2019-02-09T16:48:09.354Z,99957.37
2019-02-09T16:50:37.754Z,99950.34
2019-02-09T16:53:06.701Z,99966.48
2019-02-09T16:55:34.931Z,99972.77
2019-02-09T16:58:03.261Z,99975.16
2019-02-09T17:00:40.338Z,99979.84
2019-02-09T17:03:10.181Z,99981.48
2019-02-09T17:05:38.502Z,99975.30
2019-02-09T17:08:06.997Z,99975.61
2019-02-09T17:10:35.840Z,99981.20
2019-02-09T17:13:04.668Z,99982.83
2019-02-09T17:15:32.982Z,99979.34
2019-02-09T17:18:01.223Z,99992.36
2019-02-09T17:20:29.543Z,99991.89
2019-02-09T17:22:57.838Z,99998.58
2019-02-09T17:25:26.681Z,99981.16
2019-02-09T17:27:55.085Z,99997.94
2019-02-09T17:30:25.735Z,100008.49
2019-02-09T17:32:54.307Z,100005.47
2019-02-09T17:35:22.651Z,100018.66
2019-02-09T17:37:51.002Z,100017.88
2019-02-09T17:40:22.165Z,100020.08
2019-02-09T17:42:53.301Z,100009.02
2019-02-09T17:45:23.689Z,100026.59
2019-02-09T17:47:51.938Z,100025.02
2019-02-09T17:50:20.232Z,100024.38
2019-02-09T17:52:48.548Z,100027.02
2019-02-09T17:55:20.952Z,100024.77
2019-02-09T17:57:49.211Z,100025.73
2019-02-09T18:00:28.933Z,100047.34
2019-02-09T18:02:57.243Z,100033.52
2019-02-09T18:05:25.489Z,100032.34
2019-02-09T18:07:53.840Z,100026.38
2019-02-09T18:10:22.097Z,100034.23
2019-02-09T18:12:50.382Z,100041.66
2019-02-09T18:15:22.928Z,100050.94
2019-02-09T18:17:51.240Z,100035.05
2019-02-09T18:20:19.507Z,100058.02
2019-02-09T18:22:47.883Z,100053.20
2019-02-09T18:25:20.515Z,100058.78
2019-02-09T18:27:48.789Z,100049.92
2019-02-09T18:30:22.224Z,100050.25
2019-02-09T18:32:50.573Z,100064.63
2019-02-09T18:35:18.816Z,100050.63
2019-02-09T18:37:47.128Z,100059.68
2019-02-09T18:40:24.275Z,100065.21
2019-02-09T18:42:52.600Z,100066.44
2019-02-09T18:45:31.333Z,100070.49
2019-02-09T18:47:59.632Z,100065.88
2019-02-09T18:50:29.227Z,100062.70
2019-02-09T18:52:58.360Z,100068.36
2019-02-09T18:55:28.018Z,100074.04
2019-02-09T18:57:56.328Z,100077.74
2019-02-09T19:00:33.574Z,100063.49
2019-02-09T19:03:01.822Z,100080.07
2019-02-09T19:05:30.106Z,100082.64
2019-02-09T19:07:58.361Z,100095.89
2019-02-09T19:10:30.500Z,100084.75
2019-02-09T19:12:58.751Z,100082.77
2019-02-09T19:15:27.696Z,100079.69
2019-02-09T19:17:57.137Z,100093.76
2019-02-09T19:20:27.845Z,100096.52
2019-02-09T19:22:56.100Z,100094.30
2019-02-09T19:25:24.451Z,100093.76
2019-02-09T19:27:52.795Z,100091.37
2019-02-09T19:30:23.113Z,100101.67
2019-02-09T19:32:51.737Z,100094.14
2019-02-09T19:35:20.061Z,100104.44
2019-02-09T19:37:48.342Z,100110.71
2019-02-09T19:40:21.689Z,100105.78
2019-02-09T19:42:50.254Z,100102.92
2019-02-09T19:45:23.841Z,100108.48
2019-02-09T19:47:52.169Z,100108.48
2019-02-09T19:50:20.458Z,100108.92
2019-02-09T19:52:48.846Z,100113.56
2019-02-09T19:55:24.113Z,100109.23
2019-02-09T19:57:52.372Z,100126.59
2019-02-09T20:00:31.740Z,100116.58
2019-02-09T20:02:59.987Z,100114.45
2019-02-09T20:05:28.245Z,100116.11
2019-02-09T20:07:56.533Z,100127.12
2019-02-09T20:10:39.398Z,100127.38
2019-02-09T20:13:09.091Z,100126.84
2019-02-09T20:15:37.368Z,100122.55
2019-02-09T20:18:06.711Z,100119.66
2019-02-09T20:20:35.015Z,100123.70
2019-02-09T20:23:03.377Z,100129.55
2019-02-09T20:25:32.600Z,100120.75
2019-02-09T20:28:00.872Z,100127.12
2019-02-09T20:30:31.938Z,100120.53
2019-02-09T20:33:00.327Z,100110.93
2019-02-09T20:35:28.654Z,100109.67
2019-02-09T20:37:56.893Z,100111.50
2019-02-09T20:40:38.622Z,100110.40
2019-02-09T20:43:09.211Z,100113.22
2019-02-09T20:45:37.468Z,100113.28
2019-02-09T20:48:05.918Z,100114.63
2019-02-09T20:50:34.344Z,100117.58
2019-02-09T20:53:03.504Z,100124.02
2019-02-09T20:55:31.753Z,100127.16
2019-02-09T20:58:00.037Z,100128.87
2019-02-09T21:00:30.516Z,100122.30
2019-02-09T21:02:58.971Z,100117.89
2019-02-09T21:05:27.213Z,100116.73
2019-02-09T21:07:55.584Z,100114.44
2019-02-09T21:10:28.848Z,100118.02
2019-02-09T21:12:57.160Z,100116.16
2019-02-09T21:15:27.151Z,100115.13
2019-02-09T21:17:55.397Z,100118.02
2019-02-09T21:20:23.657Z,100122.37
2019-02-09T21:22:52.104Z,100118.33
2019-02-09T21:25:25.982Z,100119.42
2019-02-09T21:27:54.229Z,100115.31
2019-02-09T21:30:23.903Z,100120.47
2019-02-09T21:32:52.329Z,100117.58
2019-02-09T21:35:21.520Z,100117.89
2019-02-09T21:37:49.814Z,100110.95
2019-02-09T21:40:23.319Z,100111.52
2019-02-09T21:42:51.598Z,100112.61
2019-02-09T21:45:22.378Z,100114.20
2019-02-09T21:47:50.698Z,100105.64
2019-02-09T21:50:24.792Z,100107.21
2019-02-09T21:52:54.348Z,100102.24
2019-02-09T21:55:22.945Z,100107.67
2019-02-09T21:57:51.211Z,100111.50
2019-02-09T22:00:24.861Z,100110.67
2019-02-09T22:02:53.134Z,100105.25
2019-02-09T22:05:21.385Z,100110.37
2019-02-09T22:07:49.665Z,100115.77
2019-02-09T22:10:20.526Z,100110.73
2019-02-09T22:12:48.924Z,100107.56
2019-02-09T22:15:18.949Z,100100.00
2019-02-09T22:17:47.228Z,100102.11
2019-02-09T22:20:19.704Z,100103.01
2019-02-09T22:22:48.225Z,100101.97
2019-02-09T22:25:20.890Z,100106.08
2019-02-09T22:27:49.966Z,100105.94
2019-02-09T22:30:32.525Z,100093.33
2019-02-09T22:33:01.138Z,100094.62
2019-02-09T22:35:29.635Z,100096.28
2019-02-09T22:37:58.071Z,100094.11
2019-02-09T22:40:37.121Z,100100.33
2019-02-09T22:43:06.141Z,100095.09
2019-02-09T22:45:34.387Z,100095.23
2019-02-09T22:48:02.785Z,100091.37
2019-02-09T22:50:33.840Z,100095.89
2019-02-09T22:53:04.855Z,100085.41
2019-02-09T22:55:33.106Z,100086.92
2019-02-09T22:58:01.382Z,100091.95
2019-02-09T23:00:53.946Z,100083.67
2019-02-09T23:03:37.509Z,100085.27
2019-02-09T23:06:15.036Z,100078.46
2019-02-09T23:08:48.080Z,100076.02
2019-02-09T23:11:16.340Z,100069.80
2019-02-09T23:13:45.264Z,100063.81
2019-02-09T23:16:13.550Z,100054.36
2019-02-09T23:18:41.851Z,100061.17
2019-02-09T23:21:10.104Z,100060.36
2019-02-09T23:23:38.374Z,100052.27
2019-02-09T23:26:06.664Z,100050.06
2019-02-09T23:28:34.919Z,100047.36
2019-02-09T23:31:03.209Z,100039.58
2019-02-09T23:33:31.484Z,100039.02
2019-02-09T23:35:59.761Z,100029.57
2019-02-09T23:38:28.137Z,100040.62
2019-02-09T23:40:56.395Z,100036.32
2019-02-09T23:43:24.678Z,100039.27
2019-02-09T23:45:52.950Z,100039.52
2019-02-09T23:48:21.528Z,100034.97
2019-02-09T23:50:49.817Z,100030.20
2019-02-09T23:53:18.161Z,100028.34
2019-02-09T23:55:46.414Z,100025.09
2019-02-09T23:58:14.675Z,100019.50
